Time;durP1;ratioP1;P1;durP2;ratioP2;P2;SDS_P1;SDS_P2;PMS_P1;PMS_P2;Temp;Humidity;BMP_temperature;BMP_pressure;BME280_temperature;BME280_humidity;BME280_pressure;Samples;Min_cycle;Max_cycle;Signal;HPM_P1;HPM_P2
2022/12/29 00:01:49;;;;;;;30.23;14.53;;;5.60;74.70;;;;;;5033660;28;20250;-82
2022/12/29 00:04:17;;;;;;;33.20;15.83;;;5.50;74.90;;;;;;5025171;28;20270;-83
2022/12/29 00:06:46;;;;;;;30.90;15.23;;;5.50;74.90;;;;;;5027630;28;20232;-82
2022/12/29 00:09:16;;;;;;;37.77;15.13;;;5.50;75.00;;;;;;5032089;28;20196;-83
2022/12/29 00:11:44;;;;;;;35.80;15.03;;;5.50;75.00;;;;;;5031374;28;20237;-82
2022/12/29 00:17:01;;;;;;;32.57;15.03;;;5.50;75.00;;;;;;5031298;28;20223;-79
2022/12/29 00:36:18;;;;;;;34.83;15.73;;;5.40;75.50;;;;;;5009508;28;20252;-80
2022/12/29 00:44:21;;;;;;;35.93;15.57;;;5.30;75.50;;;;;;5013047;28;20614;-81
2022/12/29 00:46:50;;;;;;;36.50;15.43;;;5.30;75.60;;;;;;5012836;28;20207;-80
2022/12/29 00:52:10;;;;;;;43.38;20.55;;;5.30;75.80;;;;;;4996203;28;20490;-78
2022/12/29 00:54:39;;;;;;;33.23;17.00;;;5.30;76.70;;;;;;5006552;28;20192;-81
2022/12/29 00:57:09;;;;;;;36.20;17.80;;;5.20;76.70;;;;;;5005827;28;20278;-81
2022/12/29 00:59:38;;;;;;;33.63;17.17;;;5.20;76.60;;;;;;5010336;28;20192;-81
2022/12/29 01:02:07;;;;;;;39.30;16.90;;;5.20;76.70;;;;;;5011839;28;20820;-81
2022/12/29 01:04:37;;;;;;;38.80;17.13;;;5.20;76.80;;;;;;5010146;28;20226;-81
2022/12/29 01:07:06;;;;;;;32.50;16.20;;;5.20;76.80;;;;;;5008819;28;20223;-81
2022/12/29 01:12:40;;;;;;;37.57;17.63;;;5.10;76.70;;;;;;5008712;28;20541;-82
2022/12/29 01:15:10;;;;;;;36.37;17.63;;;5.10;76.90;;;;;;5014386;28;20196;-81
2022/12/29 01:17:39;;;;;;;45.90;18.50;;;5.10;76.90;;;;;;5013448;28;20230;-81
2022/12/29 01:20:10;;;;;;;40.50;17.90;;;5.10;76.90;;;;;;5006272;28;20216;-81
2022/12/29 01:22:39;;;;;;;40.10;18.80;;;5.10;76.90;;;;;;4997021;28;20192;-81
2022/12/29 01:25:08;;;;;;;38.00;17.93;;;5.10;77.00;;;;;;5014165;28;20188;-81
2022/12/29 01:27:37;;;;;;;47.17;22.60;;;5.00;77.00;;;;;;5011398;28;20451;-81
2022/12/29 01:30:06;;;;;;;39.47;19.10;;;5.00;77.80;;;;;;5016106;28;20262;-81
2022/12/29 01:32:34;;;;;;;50.00;19.83;;;5.00;77.80;;;;;;5011652;28;20653;-81
2022/12/29 01:35:03;;;;;;;41.73;19.73;;;5.00;77.90;;;;;;5003701;28;20480;-81
2022/12/29 01:37:33;;;;;;;33.77;17.73;;;5.00;77.80;;;;;;5007762;28;20200;-81
2022/12/29 01:40:01;;;;;;;43.75;21.77;;;5.00;77.70;;;;;;5007672;28;20456;-81
2022/12/29 01:42:29;;;;;;;38.00;18.97;;;5.00;78.50;;;;;;5012772;28;20197;-80
2022/12/29 01:44:59;;;;;;;40.33;19.13;;;4.90;78.30;;;;;;5013398;28;20277;-80
2022/12/29 01:47:35;;;;;;;38.07;18.63;;;5.00;78.30;;;;;;5017657;28;20291;-81
2022/12/29 01:50:09;;;;;;;41.50;18.83;;;5.00;78.20;;;;;;5004149;28;20206;-81
2022/12/29 01:52:43;;;;;;;36.63;18.07;;;5.00;78.00;;;;;;5012190;28;20195;-81
2022/12/29 01:55:12;;;;;;;41.17;17.53;;;4.90;77.90;;;;;;4995195;28;20200;-79
2022/12/29 01:57:44;;;;;;;44.47;19.43;;;4.90;77.90;;;;;;5004659;28;20228;-79
2022/12/29 02:00:14;;;;;;;43.00;18.47;;;4.90;77.90;;;;;;5008092;28;20213;-81
2022/12/29 02:02:48;;;;;;;33.43;17.47;;;4.90;77.90;;;;;;5015197;28;20203;-81
2022/12/29 02:05:24;;;;;;;43.17;17.67;;;4.90;77.90;;;;;;5005031;28;20269;-81
2022/12/29 02:07:54;;;;;;;38.77;18.27;;;4.90;77.90;;;;;;5011193;28;20196;-80
2022/12/29 02:10:25;;;;;;;38.13;17.70;;;4.90;78.00;;;;;;5014757;28;20192;-80
2022/12/29 02:12:54;;;;;;;36.47;17.90;;;4.90;78.00;;;;;;5011765;28;20195;-79
2022/12/29 02:15:28;;;;;;;36.80;18.97;;;4.80;77.90;;;;;;5009631;28;20562;-80
2022/12/29 02:18:15;;;;;;;34.20;18.30;;;4.80;77.90;;;;;;5011906;28;20240;-82
2022/12/29 02:21:36;;;;;;;38.17;18.00;;;4.80;78.20;;;;;;5001081;28;20208;-80
2022/12/29 02:24:36;;;;;;;37.00;17.67;;;4.80;78.20;;;;;;5004098;28;20228;-79
2022/12/29 02:27:43;;;;;;;43.10;20.57;;;4.70;78.10;;;;;;5005880;28;20451;-80
2022/12/29 02:30:37;;;;;;;46.43;21.20;;;4.70;78.30;;;;;;5009200;28;20456;-78
2022/12/29 02:33:14;;;;;;;36.23;19.60;;;4.70;78.30;;;;;;5010608;28;20254;-79
2022/12/29 02:35:50;;;;;;;36.67;18.73;;;4.70;78.30;;;;;;5012792;28;20243;-80
2022/12/29 02:38:29;;;;;;;44.50;19.53;;;4.70;78.20;;;;;;5005516;28;20619;-79
2022/12/29 02:41:06;;;;;;;39.57;18.93;;;4.70;78.20;;;;;;5006311;28;20953;-79
2022/12/29 02:43:39;;;;;;;40.00;18.90;;;4.70;78.20;;;;;;5017301;28;20667;-79
2022/12/29 02:46:15;;;;;;;30.20;17.60;;;4.70;78.30;;;;;;5012745;28;20250;-80
2022/12/29 02:48:52;;;;;;;39.23;19.17;;;4.70;78.40;;;;;;5011383;28;20283;-77
2022/12/29 02:51:26;;;;;;;38.53;20.42;;;4.70;78.50;;;;;;5027884;28;20442;-79
2022/12/29 02:56:42;;;;;;;41.30;19.50;;;4.60;78.70;;;;;;5010619;28;20200;-80
2022/12/29 02:59:11;;;;;;;39.53;18.77;;;4.60;78.60;;;;;;5008579;28;20199;-80
2022/12/29 03:02:18;;;;;;;38.17;18.90;;;4.60;78.60;;;;;;5013160;28;20257;-80
2022/12/29 03:04:59;;;;;;;40.78;21.65;;;4.60;78.70;;;;;;5011553;28;20508;-80
2022/12/29 03:07:39;;;;;;;35.53;17.57;;;4.60;79.50;;;;;;5020273;28;20194;-80
2022/12/29 03:10:18;;;;;;;39.60;18.43;;;4.60;79.50;;;;;;5005592;28;20249;-80
2022/12/29 03:16:01;;;;;;;36.90;20.10;;;4.50;79.10;;;;;;5015095;28;20497;-79
2022/12/29 03:18:39;;;;;;;31.63;16.67;;;4.50;79.20;;;;;;5018266;28;20711;-79
2022/12/29 03:21:13;;;;;;;31.60;17.07;;;4.50;79.20;;;;;;5014581;28;20203;-79
2022/12/29 03:23:47;;;;;;;36.90;18.57;;;4.50;79.10;;;;;;5016618;28;20196;-78
2022/12/29 03:26:18;;;;;;;34.30;16.37;;;4.50;79.10;;;;;;5019219;28;20195;-78
2022/12/29 03:28:52;;;;;;;33.03;16.80;;;4.50;79.10;;;;;;5017263;28;20207;-78
2022/12/29 03:31:22;;;;;;;33.77;16.50;;;4.40;79.00;;;;;;5014217;28;20196;-80
2022/12/29 03:33:54;;;;;;;37.10;16.80;;;4.40;78.90;;;;;;5005475;28;20189;-80
2022/12/29 03:36:29;;;;;;;30.10;15.97;;;4.40;78.90;;;;;;5006122;28;20195;-80
2022/12/29 03:39:05;;;;;;;31.43;16.57;;;4.40;78.80;;;;;;5015905;28;20647;-80
2022/12/29 03:41:35;;;;;;;31.17;15.70;;;4.40;78.90;;;;;;5007199;28;21062;-76
2022/12/29 03:44:06;;;;;;;27.43;15.80;;;4.40;79.00;;;;;;5012764;28;20495;-79
2022/12/29 03:46:34;;;;;;;28.80;15.17;;;4.40;78.90;;;;;;5024067;28;20196;-80
2022/12/29 03:49:04;;;;;;;30.53;15.93;;;4.40;79.00;;;;;;5015977;28;20698;-81
2022/12/29 03:51:32;;;;;;;32.80;16.13;;;4.40;79.80;;;;;;5017436;28;20207;-79
2022/12/29 03:54:01;;;;;;;31.47;15.83;;;4.40;79.00;;;;;;5017177;28;20258;-80
2022/12/29 03:56:29;;;;;;;30.17;16.03;;;4.40;79.00;;;;;;5009955;28;20663;-79
2022/12/29 03:58:58;;;;;;;31.17;15.40;;;4.30;78.90;;;;;;5021928;28;20200;-79
2022/12/29 04:01:26;;;;;;;28.33;15.17;;;4.40;78.90;;;;;;5014157;28;20203;-79
2022/12/29 04:03:54;;;;;;;30.47;16.40;;;4.40;78.90;;;;;;5017834;28;20204;-79
2022/12/29 04:06:24;;;;;;;27.13;15.70;;;4.30;78.90;;;;;;5014622;28;20273;-78
2022/12/29 04:08:52;;;;;;;30.73;15.80;;;4.40;79.00;;;;;;5012190;28;20201;-78
2022/12/29 04:11:22;;;;;;;29.03;16.33;;;4.30;78.80;;;;;;5013559;28;20268;-79
2022/12/29 04:13:55;;;;;;;30.13;14.87;;;4.30;79.00;;;;;;5013840;28;20189;-79
2022/12/29 04:16:23;;;;;;;30.83;16.90;;;4.30;79.10;;;;;;5010729;28;20279;-78
2022/12/29 04:18:52;;;;;;;33.70;16.83;;;4.30;79.10;;;;;;5014892;28;20235;-78
2022/12/29 04:21:20;;;;;;;28.43;15.83;;;4.30;79.10;;;;;;5013404;28;20204;-80
2022/12/29 04:23:50;;;;;;;33.00;16.13;;;4.30;79.20;;;;;;5015170;28;20207;-79
2022/12/29 04:26:18;;;;;;;38.40;17.60;;;4.30;79.30;;;;;;5014723;28;20625;-78
2022/12/29 04:28:47;;;;;;;28.17;15.03;;;4.30;79.30;;;;;;5004610;28;20207;-79
2022/12/29 04:31:15;;;;;;;36.33;19.15;;;4.30;79.30;;;;;;5008567;28;20937;-80
2022/12/29 04:33:45;;;;;;;35.87;16.93;;;4.20;79.70;;;;;;5017477;28;20199;-79
2022/12/29 04:36:13;;;;;;;29.33;16.13;;;4.20;80.60;;;;;;5012557;28;20200;-80
2022/12/29 04:38:42;;;;;;;33.97;15.80;;;4.20;79.70;;;;;;5012348;28;20212;-78
2022/12/29 04:41:11;;;;;;;34.23;16.10;;;4.20;79.60;;;;;;5008816;28;20750;-79
2022/12/29 04:43:40;;;;;;;32.27;15.83;;;4.20;79.60;;;;;;5016353;28;20208;-79
2022/12/29 04:46:08;;;;;;;37.47;17.07;;;4.20;79.50;;;;;;5002274;28;20762;-79
2022/12/29 04:48:37;;;;;;;37.07;17.13;;;4.20;79.50;;;;;;5016972;28;20225;-79
2022/12/29 04:51:05;;;;;;;31.20;16.00;;;4.20;79.60;;;;;;5019204;28;20656;-79
2022/12/29 04:53:33;;;;;;;32.43;15.53;;;4.20;79.60;;;;;;5014996;28;20585;-79
2022/12/29 04:56:02;;;;;;;35.47;17.37;;;4.20;79.60;;;;;;5013896;28;20210;-78
2022/12/29 04:58:31;;;;;;;31.83;15.83;;;4.20;79.70;;;;;;5008287;28;20200;-79
2022/12/29 05:01:00;;;;;;;32.40;15.57;;;4.20;79.70;;;;;;5010608;28;20196;-80
2022/12/29 05:03:28;;;;;;;37.70;16.73;;;4.20;79.70;;;;;;5013717;28;20276;-79
2022/12/29 05:05:57;;;;;;;34.13;16.43;;;4.20;79.70;;;;;;5007869;28;20223;-80
2022/12/29 05:08:26;;;;;;;33.50;15.97;;;4.20;79.80;;;;;;5012493;28;20648;-80
2022/12/29 05:10:55;;;;;;;34.87;16.50;;;4.20;79.80;;;;;;5007237;28;20564;-79
2022/12/29 05:13:24;;;;;;;34.70;16.73;;;4.20;79.80;;;;;;5013452;28;20210;-79
2022/12/29 05:15:54;;;;;;;41.40;17.07;;;4.20;79.80;;;;;;5011759;28;20199;-79
2022/12/29 05:18:23;;;;;;;37.97;16.67;;;4.20;79.70;;;;;;5012082;28;20230;-80
2022/12/29 05:20:51;;;;;;;28.47;15.30;;;4.20;79.80;;;;;;5008535;28;20262;-79
2022/12/29 05:23:20;;;;;;;36.30;16.77;;;4.20;79.80;;;;;;5018675;28;20194;-80
2022/12/29 05:25:48;;;;;;;32.10;17.00;;;4.10;79.70;;;;;;5011756;28;20758;-79
2022/12/29 05:28:16;;;;;;;34.93;16.30;;;4.10;79.70;;;;;;5008640;28;20263;-81
2022/12/29 05:30:48;;;;;;;32.20;17.13;;;4.20;79.80;;;;;;5012214;28;20579;-80
2022/12/29 05:33:19;;;;;;;34.23;16.97;;;4.20;79.90;;;;;;5009299;28;20642;-80
2022/12/29 05:35:47;;;;;;;34.27;16.90;;;4.10;79.90;;;;;;5006745;28;20664;-78
2022/12/29 05:38:16;;;;;;;32.83;16.97;;;4.10;79.90;;;;;;5003720;28;20246;-79
2022/12/29 05:40:45;;;;;;;33.77;16.43;;;4.10;80.00;;;;;;5005676;28;20210;-81
2022/12/29 05:43:13;;;;;;;31.77;17.37;;;4.10;79.90;;;;;;5014873;28;20199;-79
2022/12/29 05:45:42;;;;;;;34.17;16.43;;;4.10;79.90;;;;;;5003335;28;20518;-80
2022/12/29 05:48:10;;;;;;;29.97;16.77;;;4.10;80.00;;;;;;5008670;28;20247;-79
2022/12/29 05:50:40;;;;;;;30.70;16.73;;;4.10;80.00;;;;;;5006169;28;20619;-79
2022/12/29 05:53:08;;;;;;;35.43;16.90;;;4.10;80.20;;;;;;5015735;28;20234;-80
2022/12/29 05:55:36;;;;;;;37.47;17.07;;;4.10;80.20;;;;;;5013938;28;20273;-80
2022/12/29 05:58:10;;;;;;;36.93;18.50;;;4.10;80.30;;;;;;5004121;28;20715;-80
2022/12/29 06:00:39;;;;;;;38.63;18.40;;;4.10;80.40;;;;;;5006240;28;20199;-80
2022/12/29 06:03:07;;;;;;;45.10;18.83;;;4.10;80.60;;;;;;5017066;28;20615;-80
2022/12/29 06:05:36;;;;;;;54.37;20.83;;;4.00;80.60;;;;;;5004278;28;20670;-80
2022/12/29 06:08:06;;;;;;;46.60;18.73;;;4.00;80.90;;;;;;5018549;28;20266;-80
2022/12/29 06:10:34;;;;;;;45.43;20.17;;;4.10;81.20;;;;;;5010284;28;20264;-80
2022/12/29 06:13:03;;;;;;;29.63;15.70;;;4.00;81.10;;;;;;5018840;28;20230;-81
2022/12/29 06:15:31;;;;;;;40.47;17.70;;;4.00;81.20;;;;;;4994445;28;21522;-80
2022/12/29 06:18:00;;;;;;;40.20;20.33;;;4.10;81.30;;;;;;4999222;28;20926;-79
2022/12/29 06:20:29;;;;;;;34.57;17.83;;;4.10;81.60;;;;;;5012440;28;20202;-80
2022/12/29 06:22:57;;;;;;;33.00;17.07;;;4.10;81.80;;;;;;5002202;28;20277;-80
2022/12/29 06:25:28;;;;;;;39.90;17.90;;;4.00;81.80;;;;;;5004793;28;20211;-80
2022/12/29 06:27:56;;;;;;;37.90;18.70;;;4.10;81.80;;;;;;5014656;28;20202;-80
2022/12/29 06:30:25;;;;;;;39.30;20.88;;;4.10;81.80;;;;;;5008031;28;20512;-79
2022/12/29 06:32:54;;;;;;;42.97;19.70;;;4.10;82.10;;;;;;5014119;28;20215;-80
2022/12/29 06:35:23;;;;;;;34.80;17.43;;;4.20;82.40;;;;;;5014096;28;20254;-80
2022/12/29 06:37:51;;;;;;;35.77;17.87;;;4.20;82.40;;;;;;5024351;28;20227;-78
2022/12/29 06:40:19;;;;;;;41.10;17.93;;;4.20;82.40;;;;;;5010048;28;20214;-80
2022/12/29 06:42:49;;;;;;;34.67;18.23;;;4.20;82.70;;;;;;5007067;28;20199;-80
2022/12/29 06:45:18;;;;;;;37.83;16.30;;;4.20;82.60;;;;;;5007967;28;20204;-81
2022/12/29 06:47:46;;;;;;;34.80;16.90;;;4.20;82.60;;;;;;5017242;28;20226;-80
2022/12/29 06:50:14;;;;;;;37.07;17.37;;;4.30;82.60;;;;;;5007957;28;20192;-80
2022/12/29 06:52:43;;;;;;;40.43;18.17;;;4.30;82.50;;;;;;5011025;28;20197;-81
2022/12/29 06:55:11;;;;;;;92.47;32.77;;;4.40;82.60;;;;;;5009044;28;20252;-79
2022/12/29 06:57:39;;;;;;;80.07;29.30;;;4.40;83.50;;;;;;5008291;28;20216;-80
2022/12/29 07:00:10;;;;;;;62.50;25.10;;;4.50;82.70;;;;;;5015693;28;20195;-80
2022/12/29 07:02:39;;;;;;;54.00;22.67;;;4.50;82.80;;;;;;5015043;28;20192;-81
2022/12/29 07:05:09;;;;;;;67.07;23.80;;;4.60;82.80;;;;;;5016122;28;20634;-79
2022/12/29 07:07:37;;;;;;;42.47;20.00;;;4.60;82.90;;;;;;5007114;28;20201;-77
2022/12/29 07:10:06;;;;;;;43.90;21.17;;;4.70;82.90;;;;;;5002716;28;20255;-78
2022/12/29 07:12:34;;;;;;;38.20;18.17;;;4.80;83.10;;;;;;5010650;28;20524;-79
2022/12/29 07:15:03;;;;;;;38.88;20.67;;;4.80;83.20;;;;;;5006153;28;20453;-80
2022/12/29 07:17:32;;;;;;;34.43;18.00;;;4.80;83.50;;;;;;5012059;28;20294;-78
2022/12/29 07:20:01;;;;;;;35.20;16.80;;;4.90;83.60;;;;;;5004920;28;20200;-79
2022/12/29 07:22:29;;;;;;;39.00;17.00;;;5.00;83.50;;;;;;5006274;28;20200;-79
2022/12/29 07:24:57;;;;;;;35.50;15.37;;;5.10;83.50;;;;;;5012112;28;20239;-79
2022/12/29 07:27:26;;;;;;;35.33;17.80;;;5.20;83.50;;;;;;5013945;28;20471;-78
2022/12/29 07:29:54;;;;;;;30.67;16.07;;;5.20;83.90;;;;;;5008030;28;20715;-79
2022/12/29 07:32:22;;;;;;;31.87;15.00;;;5.30;83.80;;;;;;5012390;28;20216;-79
2022/12/29 07:34:53;;;;;;;37.73;14.90;;;5.40;83.60;;;;;;5010978;28;20264;-80
2022/12/29 07:37:21;;;;;;;31.17;13.97;;;5.40;83.30;;;;;;5003648;28;20218;-79
2022/12/29 07:39:50;;;;;;;33.43;14.80;;;5.50;84.00;;;;;;5001618;28;20827;-79
2022/12/29 07:42:18;;;;;;;28.40;14.23;;;5.60;83.00;;;;;;5011192;28;20227;-78
2022/12/29 07:44:46;;;;;;;25.67;13.73;;;5.70;82.70;;;;;;5014070;28;20290;-79
2022/12/29 07:47:14;;;;;;;34.03;14.07;;;5.80;82.70;;;;;;5015977;28;20274;-80
2022/12/29 07:49:43;;;;;;;30.07;14.67;;;5.90;82.50;;;;;;5003974;28;20210;-80
2022/12/29 07:52:12;;;;;;;33.57;15.27;;;6.00;82.60;;;;;;5011660;28;20259;-80
2022/12/29 07:54:41;;;;;;;28.60;14.37;;;6.10;82.70;;;;;;5012698;28;20197;-80
2022/12/29 07:57:09;;;;;;;32.97;15.60;;;6.20;82.50;;;;;;5008528;28;20270;-79
2022/12/29 07:59:37;;;;;;;29.17;12.77;;;6.30;82.40;;;;;;5016160;28;20204;-80
2022/12/29 08:02:06;;;;;;;28.85;13.70;;;6.40;82.30;;;;;;5009205;28;20542;-81
2022/12/29 08:04:34;;;;;;;20.77;11.87;;;6.50;81.90;;;;;;5015664;28;20203;-81
2022/12/29 08:07:03;;;;;;;27.47;12.63;;;6.60;81.70;;;;;;5003588;28;20200;-82
2022/12/29 08:09:32;;;;;;;29.70;12.13;;;6.80;81.90;;;;;;5013348;28;20276;-82
2022/12/29 08:12:01;;;;;;;23.40;12.07;;;6.90;81.80;;;;;;5012577;28;20199;-83
2022/12/29 08:14:29;;;;;;;23.20;12.25;;;7.00;81.30;;;;;;5009481;28;20453;-80
2022/12/29 08:16:57;;;;;;;24.97;12.40;;;7.10;81.00;;;;;;5015479;28;20215;-80
2022/12/29 08:19:26;;;;;;;25.03;11.20;;;7.20;80.90;;;;;;5014801;28;20258;-80
2022/12/29 08:21:54;;;;;;;30.33;11.70;;;7.30;80.80;;;;;;5013530;28;20215;-79
2022/12/29 08:24:22;;;;;;;18.97;11.70;;;7.30;80.30;;;;;;5012129;28;20257;-79
2022/12/29 08:26:52;;;;;;;23.83;12.17;;;7.40;80.30;;;;;;5016208;28;20200;-79
2022/12/29 08:29:21;;;;;;;25.80;11.90;;;7.60;79.90;;;;;;5016356;28;20611;-78
2022/12/29 08:31:50;;;;;;;22.13;11.83;;;7.60;79.40;;;;;;5014608;28;20199;-80
2022/12/29 08:34:18;;;;;;;23.57;11.00;;;7.70;79.10;;;;;;5012656;28;20200;-80
2022/12/29 08:36:46;;;;;;;24.03;10.33;;;7.70;78.80;;;;;;5011013;28;21638;-80
2022/12/29 08:39:20;;;;;;;27.73;12.60;;;7.80;78.70;;;;;;5000259;28;20493;-78
2022/12/29 08:41:49;;;;;;;18.83;11.30;;;7.90;79.00;;;;;;5001496;28;20234;-80
2022/12/29 08:44:18;;;;;;;20.90;9.43;;;8.00;78.90;;;;;;5011556;28;20200;-80
2022/12/29 08:46:47;;;;;;;19.47;10.37;;;8.10;78.30;;;;;;5013895;28;20609;-80
2022/12/29 08:49:15;;;;;;;20.10;9.17;;;8.10;78.00;;;;;;5008133;28;20247;-80
2022/12/29 08:51:44;;;;;;;19.60;10.57;;;8.10;77.90;;;;;;5011486;28;20204;-80
2022/12/29 08:54:12;;;;;;;21.77;10.43;;;8.20;78.00;;;;;;5011536;28;20197;-79
2022/12/29 08:56:40;;;;;;;19.27;10.20;;;8.30;77.40;;;;;;5012634;28;20197;-79
2022/12/29 08:59:09;;;;;;;20.53;10.43;;;8.30;77.00;;;;;;5017364;28;20663;-79
2022/12/29 09:01:40;;;;;;;19.08;10.20;;;8.30;76.70;;;;;;5006799;28;21022;-80
2022/12/29 09:04:09;;;;;;;16.60;8.07;;;8.30;76.80;;;;;;5013119;28;20298;-81
2022/12/29 09:06:43;;;;;;;15.33;7.43;;;8.40;76.80;;;;;;5016261;28;20196;-80
2022/12/29 09:09:11;;;;;;;17.47;8.07;;;8.40;75.70;;;;;;5008229;28;20211;-80
2022/12/29 09:11:40;;;;;;;15.40;7.73;;;8.50;75.50;;;;;;5004996;28;20192;-81
2022/12/29 09:14:08;;;;;;;17.42;8.93;;;8.50;76.10;;;;;;5003569;28;20436;-79
2022/12/29 09:16:38;;;;;;;20.13;8.77;;;8.60;76.30;;;;;;5002736;28;20201;-80
2022/12/29 09:19:07;;;;;;;18.93;8.33;;;8.70;76.70;;;;;;5027948;28;20259;-80
2022/12/29 09:21:35;;;;;;;15.30;8.30;;;8.80;76.50;;;;;;5029016;28;20261;-80
2022/12/29 09:24:03;;;;;;;10.43;6.37;;;8.80;76.40;;;;;;5027040;28;20200;-77
2022/12/29 09:26:32;;;;;;;15.07;7.95;;;8.90;76.10;;;;;;5031411;28;20450;-79
2022/12/29 09:29:00;;;;;;;17.93;7.83;;;9.00;75.70;;;;;;5029813;28;20610;-79
2022/12/29 09:31:28;;;;;;;13.63;7.03;;;9.00;75.30;;;;;;5029987;28;20208;-79
2022/12/29 09:33:58;;;;;;;16.13;7.50;;;9.10;74.10;;;;;;5025222;28;20220;-79
2022/12/29 09:36:27;;;;;;;15.27;7.60;;;9.10;73.10;;;;;;5023910;28;20473;-80
2022/12/29 09:38:56;;;;;;;16.90;7.83;;;9.20;73.70;;;;;;5020959;28;20823;-81
2022/12/29 09:41:30;;;;;;;13.07;6.53;;;9.20;73.80;;;;;;5028134;28;20196;-80
2022/12/29 09:44:13;;;;;;;13.73;6.70;;;9.40;75.00;;;;;;5032704;28;20198;-78
2022/12/29 09:46:44;;;;;;;17.03;7.63;;;9.50;74.30;;;;;;5029910;28;20252;-81
2022/12/29 09:49:25;;;;;;;13.03;7.00;;;9.60;73.40;;;;;;5027379;28;20227;-80
2022/12/29 09:51:56;;;;;;;16.60;6.30;;;9.60;72.20;;;;;;5021654;28;20611;-80
2022/12/29 09:54:52;;;;;;;17.07;6.50;;;9.80;73.10;;;;;;5028068;28;20245;-80
2022/12/29 09:57:34;;;;;;;11.40;6.73;;;9.80;72.50;;;;;;5028167;28;20207;-81
2022/12/29 10:00:07;;;;;;;15.33;6.93;;;9.90;72.50;;;;;;5037048;28;20195;-81
2022/12/29 10:02:40;;;;;;;13.23;6.53;;;10.00;73.60;;;;;;5029301;28;20188;-80
2022/12/29 10:05:21;;;;;;;14.97;6.80;;;10.10;72.50;;;;;;5026634;28;20196;-80
2022/12/29 10:07:58;;;;;;;11.03;4.90;;;10.20;72.20;;;;;;5029452;28;20242;-80
2022/12/29 10:10:35;;;;;;;14.20;5.50;;;10.30;71.00;;;;;;5025933;28;20246;-81
2022/12/29 10:13:21;;;;;;;10.50;5.40;;;10.30;70.50;;;;;;5023274;28;20204;-80
2022/12/29 10:15:58;;;;;;;11.17;4.97;;;10.30;70.20;;;;;;5029345;28;20199;-79
2022/12/29 10:18:59;;;;;;;8.50;4.50;;;10.40;69.80;;;;;;5010692;28;20236;-81
2022/12/29 10:21:44;;;;;;;10.87;4.70;;;10.40;69.30;;;;;;5010119;28;20216;-80
2022/12/29 10:24:13;;;;;;;17.03;5.17;;;10.40;69.40;;;;;;5004357;28;20243;-82
2022/12/29 10:26:45;;;;;;;18.47;4.83;;;10.50;69.50;;;;;;5003218;28;20204;-83
2022/12/29 10:29:18;;;;;;;10.63;5.00;;;10.50;69.30;;;;;;5008034;28;20720;-79
2022/12/29 10:31:50;;;;;;;8.70;4.30;;;10.60;70.90;;;;;;5018836;28;20242;-80
2022/12/29 10:34:24;;;;;;;12.73;4.90;;;10.70;69.60;;;;;;5005460;28;20196;-79
2022/12/29 10:36:59;;;;;;;8.07;4.40;;;10.70;67.90;;;;;;5020603;28;20196;-79
2022/12/29 10:39:32;;;;;;;9.23;4.43;;;10.70;67.60;;;;;;5010738;28;20254;-80
2022/12/29 10:42:10;;;;;;;7.27;4.83;;;10.70;67.60;;;;;;5018402;28;20731;-79
2022/12/29 10:44:39;;;;;;;9.70;4.57;;;10.70;67.20;;;;;;5011136;28;20193;-80
2022/12/29 10:47:14;;;;;;;10.00;4.87;;;10.80;67.20;;;;;;5003724;28;20247;-80
2022/12/29 10:49:43;;;;;;;7.60;3.93;;;10.80;67.30;;;;;;5000771;28;20266;-80
2022/12/29 10:52:15;;;;;;;10.67;3.83;;;10.80;66.50;;;;;;5017291;28;20204;-79
2022/12/29 10:54:50;;;;;;;8.67;4.30;;;10.80;66.70;;;;;;5007847;28;20204;-78
2022/12/29 10:57:27;;;;;;;12.50;5.07;;;10.90;66.60;;;;;;5003347;28;20645;-80
2022/12/29 10:59:56;;;;;;;11.80;4.70;;;10.90;67.40;;;;;;5005029;28;20204;-79
2022/12/29 11:02:42;;;;;;;13.97;4.87;;;10.90;67.40;;;;;;5005522;28;20209;-79
2022/12/29 11:05:19;;;;;;;12.17;5.20;;;11.00;67.00;;;;;;5002354;28;20684;-81
2022/12/29 11:07:51;;;;;;;12.77;5.50;;;11.00;67.80;;;;;;5010479;28;20826;-78
2022/12/29 11:10:22;;;;;;;10.40;5.73;;;11.10;68.40;;;;;;5015342;28;20200;-80
2022/12/29 11:13:00;;;;;;;12.13;5.60;;;11.10;67.70;;;;;;5012470;28;20207;-79
2022/12/29 11:15:40;;;;;;;10.40;5.03;;;11.10;67.40;;;;;;5008828;28;20196;-78
2022/12/29 11:18:20;;;;;;;11.37;4.50;;;11.20;66.30;;;;;;5004591;28;20716;-78
2022/12/29 11:20:49;;;;;;;11.30;5.13;;;11.20;66.60;;;;;;5006802;28;20255;-80
2022/12/29 11:23:32;;;;;;;12.40;5.13;;;11.30;66.90;;;;;;5007910;28;20266;-80
2022/12/29 11:26:21;;;;;;;10.67;5.20;;;11.30;66.50;;;;;;5013352;28;20286;-79
2022/12/29 11:29:12;;;;;;;9.27;5.23;;;11.30;66.10;;;;;;5008310;28;20196;-79
2022/12/29 11:31:45;;;;;;;10.77;5.77;;;11.30;65.80;;;;;;5007776;28;20197;-80
2022/12/29 11:34:19;;;;;;;10.87;4.30;;;11.30;66.10;;;;;;5010459;28;20710;-79
2022/12/29 11:36:48;;;;;;;14.87;4.97;;;11.40;66.20;;;;;;5007396;28;20192;-79
2022/12/29 11:39:30;;;;;;;7.30;4.03;;;11.40;66.50;;;;;;5000670;28;20669;-80
2022/12/29 11:42:00;;;;;;;8.27;4.33;;;11.40;66.10;;;;;;5005658;28;20196;-80
2022/12/29 11:44:30;;;;;;;9.53;4.43;;;11.50;65.70;;;;;;5017216;28;20734;-78
2022/12/29 11:46:59;;;;;;;8.67;3.80;;;11.50;65.80;;;;;;5009715;28;20201;-79
2022/12/29 11:49:28;;;;;;;8.00;4.10;;;11.40;65.50;;;;;;5006790;28;20622;-80
2022/12/29 11:51:57;;;;;;;12.93;4.37;;;11.40;65.30;;;;;;5013577;28;20208;-80
2022/12/29 11:54:30;;;;;;;9.17;3.90;;;11.50;65.50;;;;;;5015047;28;20210;-80
2022/12/29 11:57:00;;;;;;;6.40;3.50;;;11.40;65.30;;;;;;5015700;28;20202;-79
2022/12/29 11:59:49;;;;;;;7.57;4.40;;;11.50;65.80;;;;;;5015107;28;20270;-79
2022/12/29 12:02:42;;;;;;;7.27;3.40;;;11.60;65.90;;;;;;5012424;28;20227;-79
2022/12/29 12:05:31;;;;;;;7.80;4.20;;;11.60;66.60;;;;;;4995432;28;20208;-80
2022/12/29 12:08:06;;;;;;;9.40;4.30;;;11.60;65.40;;;;;;5009725;28;20335;-78
2022/12/29 12:10:44;;;;;;;8.27;3.80;;;11.70;65.50;;;;;;5019092;28;20444;-79
2022/12/29 12:13:22;;;;;;;12.07;4.70;;;11.70;65.70;;;;;;5015076;28;20204;-80
2022/12/29 12:15:55;;;;;;;8.63;3.90;;;11.70;65.90;;;;;;5019551;28;20195;-81
2022/12/29 12:18:33;;;;;;;8.37;4.60;;;11.80;66.30;;;;;;5008736;28;20228;-79
2022/12/29 12:21:11;;;;;;;9.30;4.40;;;11.80;65.60;;;;;;5016504;28;20556;-81
2022/12/29 12:24:14;;;;;;;9.27;4.10;;;11.80;66.90;;;;;;5011434;28;20244;-80
2022/12/29 12:26:59;;;;;;;9.10;3.83;;;11.90;66.30;;;;;;5006427;28;20192;-81
2022/12/29 12:29:38;;;;;;;12.33;4.17;;;11.90;66.50;;;;;;5010663;28;20718;-81
2022/12/29 12:32:15;;;;;;;14.57;4.33;;;11.90;65.80;;;;;;5007485;28;20600;-79
2022/12/29 12:34:45;;;;;;;7.37;4.17;;;11.90;65.60;;;;;;5008861;28;20202;-81
2022/12/29 12:37:42;;;;;;;7.80;3.83;;;12.00;65.50;;;;;;5010411;28;20196;-80
2022/12/29 12:40:40;;;;;;;8.67;3.90;;;12.00;65.40;;;;;;5016810;28;20223;-81
2022/12/29 12:43:43;;;;;;;7.70;3.87;;;12.00;65.00;;;;;;5009552;28;20661;-80
2022/12/29 12:46:46;;;;;;;14.03;4.50;;;12.00;65.50;;;;;;5005970;28;20659;-81
2022/12/29 12:49:42;;;;;;;8.00;3.90;;;12.10;65.50;;;;;;5008599;28;20293;-79
2022/12/29 12:52:21;;;;;;;11.63;4.65;;;12.20;65.50;;;;;;5007174;28;20451;-79
2022/12/29 12:55:04;;;;;;;9.97;4.63;;;12.20;65.30;;;;;;5014340;28;20196;-79
2022/12/29 12:57:46;;;;;;;11.03;4.13;;;12.20;64.70;;;;;;5009133;28;20208;-80
2022/12/29 13:00:18;;;;;;;9.70;4.30;;;12.30;64.40;;;;;;5002327;28;20269;-80
2022/12/29 13:03:00;;;;;;;8.60;3.50;;;12.40;65.20;;;;;;5016087;28;20200;-80
2022/12/29 13:06:05;;;;;;;7.80;4.37;;;12.50;65.70;;;;;;5010189;28;20188;-81
2022/12/29 13:08:50;;;;;;;8.77;4.70;;;12.60;65.70;;;;;;5002727;28;20196;-81
2022/12/29 13:11:24;;;;;;;9.23;4.13;;;12.80;65.40;;;;;;5003157;28;20227;-79
2022/12/29 13:14:15;;;;;;;9.43;4.40;;;13.00;65.60;;;;;;5010008;28;20619;-81
2022/12/29 13:16:53;;;;;;;7.30;3.73;;;13.20;64.50;;;;;;5012669;28;20248;-81
2022/12/29 13:19:32;;;;;;;6.37;3.73;;;13.40;64.20;;;;;;5008380;28;20220;-81
2022/12/29 13:22:07;;;;;;;10.77;3.67;;;13.40;62.50;;;;;;5009250;28;20286;-81
2022/12/29 13:24:47;;;;;;;7.50;4.00;;;13.50;62.70;;;;;;5012853;28;20586;-80
2022/12/29 13:27:23;;;;;;;6.63;3.60;;;13.50;61.40;;;;;;5014460;28;20543;-79
2022/12/29 13:30:01;;;;;;;6.90;3.60;;;13.70;61.40;;;;;;5009393;28;20524;-80
2022/12/29 13:32:45;;;;;;;12.30;4.00;;;14.70;58.90;;;;;;5010603;28;20204;-81
2022/12/29 13:35:37;;;;;;;8.40;4.27;;;15.80;56.90;;;;;;5012409;28;20201;-80
2022/12/29 13:38:12;;;;;;;7.80;3.97;;;18.40;53.90;;;;;;5012975;28;20829;-79
2022/12/29 13:40:45;;;;;;;11.05;4.18;;;19.70;50.70;;;;;;5005643;28;20226;-81
2022/12/29 13:43:14;;;;;;;8.13;4.20;;;19.80;49.90;;;;;;5012444;28;20193;-80
2022/12/29 13:45:44;;;;;;;8.93;4.25;;;21.00;47.80;;;;;;5014281;28;20196;-80